Time;durP1;ratioP1;P1;durP2;ratioP2;P2;SDS_P1;SDS_P2;PMS_P1;PMS_P2;Temp;Humidity;BMP_temperature;BMP_pressure;BME280_temperature;BME280_humidity;BME280_pressure;Samples;Min_cycle;Max_cycle;Signal;HPM_P1;HPM_P2
2022/12/03 00:00:35;;;;;;;20.02;7.35;;;3.30;99.90;;;;;;5039608;28;20025;-74
2022/12/03 00:03:00;;;;;;;20.45;8.40;;;3.20;99.90;;;;;;5040731;28;20036;-73
2022/12/03 00:05:26;;;;;;;22.38;8.75;;;3.20;99.90;;;;;;5038775;28;20045;-72
2022/12/03 00:07:51;;;;;;;24.08;7.78;;;3.20;99.90;;;;;;5042046;28;20029;-73
2022/12/03 00:10:17;;;;;;;23.52;8.45;;;3.20;99.90;;;;;;5038601;28;20032;-73
2022/12/03 00:12:43;;;;;;;23.08;8.23;;;3.20;99.90;;;;;;5040992;28;20030;-74
2022/12/03 00:15:09;;;;;;;23.35;9.35;;;3.20;99.90;;;;;;5040359;28;20037;-72
2022/12/03 00:17:35;;;;;;;20.00;8.48;;;3.20;99.90;;;;;;5040204;28;20025;-73
2022/12/03 00:20:01;;;;;;;21.30;7.95;;;3.20;99.90;;;;;;5042164;28;20036;-74
2022/12/03 00:22:26;;;;;;;22.35;9.15;;;3.20;99.90;;;;;;5040946;28;20037;-73
2022/12/03 00:24:52;;;;;;;18.27;7.88;;;3.20;99.90;;;;;;5042396;28;20055;-73
2022/12/03 00:27:17;;;;;;;22.08;8.77;;;3.20;99.90;;;;;;5043071;28;20030;-73
2022/12/03 00:29:43;;;;;;;23.35;8.77;;;3.20;99.90;;;;;;5043216;28;20052;-73
2022/12/03 00:32:09;;;;;;;24.27;8.68;;;3.20;99.90;;;;;;5047960;28;20021;-73
2022/12/03 00:34:34;;;;;;;21.25;8.43;;;3.20;99.90;;;;;;5051663;28;20033;-73
2022/12/03 00:37:00;;;;;;;24.33;8.57;;;3.30;99.90;;;;;;5047232;28;20032;-74
2022/12/03 00:39:25;;;;;;;29.67;11.20;;;3.20;99.90;;;;;;5042582;28;20496;-73
2022/12/03 00:41:51;;;;;;;22.55;7.78;;;3.20;99.90;;;;;;5043929;28;20032;-74
2022/12/03 00:44:17;;;;;;;21.02;8.30;;;3.30;99.90;;;;;;5043061;28;20071;-74
2022/12/03 00:46:42;;;;;;;22.80;9.60;;;3.30;99.90;;;;;;5041746;28;20051;-73
2022/12/03 00:49:08;;;;;;;22.50;8.75;;;3.30;99.90;;;;;;5040774;28;20143;-73
2022/12/03 00:51:34;;;;;;;20.90;7.80;;;3.30;99.90;;;;;;5039887;28;20033;-73
2022/12/03 00:54:00;;;;;;;23.73;8.82;;;3.20;99.90;;;;;;5042831;28;20076;-73
2022/12/03 00:56:25;;;;;;;18.80;7.60;;;3.20;99.90;;;;;;5042830;28;20084;-74
2022/12/03 00:58:51;;;;;;;23.42;7.43;;;3.20;99.90;;;;;;5039076;28;20053;-73
2022/12/03 01:01:16;;;;;;;22.00;8.38;;;3.20;99.90;;;;;;5042536;28;20033;-73
2022/12/03 01:03:42;;;;;;;21.17;8.70;;;3.20;99.90;;;;;;5048661;28;20033;-73
2022/12/03 01:06:07;;;;;;;21.85;8.00;;;3.30;99.90;;;;;;5047318;28;20060;-72
2022/12/03 01:08:33;;;;;;;19.88;7.85;;;3.30;99.90;;;;;;5047658;28;20508;-73
2022/12/03 01:10:59;;;;;;;21.48;7.65;;;3.20;99.90;;;;;;5040331;28;20091;-73
2022/12/03 01:13:24;;;;;;;23.88;7.97;;;3.20;99.90;;;;;;5040815;28;20078;-73
2022/12/03 01:15:50;;;;;;;20.58;7.70;;;3.30;99.90;;;;;;5036328;28;20034;-73
2022/12/03 01:18:15;;;;;;;19.50;7.72;;;3.30;99.90;;;;;;5038697;28;20438;-73
2022/12/03 01:20:41;;;;;;;24.42;8.38;;;3.20;99.90;;;;;;5030279;28;20056;-73
2022/12/03 01:23:07;;;;;;;24.83;7.78;;;3.20;99.90;;;;;;5033373;28;20120;-73
2022/12/03 01:25:32;;;;;;;27.55;9.45;;;3.20;99.90;;;;;;5043812;28;20124;-73
2022/12/03 01:27:58;;;;;;;24.30;8.43;;;3.20;99.90;;;;;;5037528;28;20026;-73
2022/12/03 01:30:23;;;;;;;19.77;8.45;;;3.20;99.90;;;;;;5038587;28;20045;-73
2022/12/03 01:32:49;;;;;;;24.48;8.18;;;3.20;99.90;;;;;;5041098;28;20036;-73
2022/12/03 01:35:14;;;;;;;20.42;8.13;;;3.20;99.90;;;;;;5044903;28;20037;-73
2022/12/03 01:37:40;;;;;;;19.60;7.05;;;3.20;99.90;;;;;;5039688;28;20068;-73
2022/12/03 01:40:07;;;;;;;19.30;7.75;;;3.20;99.90;;;;;;5038899;28;20033;-73
2022/12/03 01:42:38;;;;;;;22.48;8.65;;;3.10;99.90;;;;;;5071954;28;20037;-73
2022/12/03 01:45:04;;;;;;;20.35;8.35;;;3.10;99.90;;;;;;5038457;28;20120;-73
2022/12/03 01:47:33;;;;;;;21.50;9.00;;;3.20;99.90;;;;;;5041133;28;20029;-73
2022/12/03 01:50:16;;;;;;;20.95;7.55;;;3.10;99.90;;;;;;5036566;28;20545;-73
2022/12/03 01:52:42;;;;;;;24.77;8.48;;;3.30;99.90;;;;;;5041418;28;20037;-74
2022/12/03 01:55:14;;;;;;;21.63;8.05;;;3.30;99.90;;;;;;5043028;28;20043;-74
2022/12/03 01:57:43;;;;;;;22.88;9.27;;;3.30;99.90;;;;;;5041456;28;20037;-73
2022/12/03 02:00:18;;;;;;;24.75;8.70;;;3.20;99.90;;;;;;5042784;28;20103;-73
2022/12/03 02:02:44;;;;;;;22.75;9.05;;;3.20;99.90;;;;;;5041936;28;20033;-73
2022/12/03 02:05:25;;;;;;;22.77;9.10;;;3.20;99.90;;;;;;5042831;28;20037;-73
2022/12/03 02:07:51;;;;;;;16.58;6.93;;;3.20;99.90;;;;;;5069277;28;20453;-73
2022/12/03 02:10:19;;;;;;;23.40;8.98;;;3.20;99.90;;;;;;5043706;28;20037;-73
2022/12/03 02:12:57;;;;;;;20.10;8.25;;;3.20;99.90;;;;;;5041117;28;20069;-73
2022/12/03 02:15:23;;;;;;;24.27;8.85;;;3.20;99.90;;;;;;5035745;28;20531;-73
2022/12/03 02:17:49;;;;;;;26.52;9.90;;;3.30;99.90;;;;;;5044378;28;20029;-73
2022/12/03 02:20:15;;;;;;;23.90;8.93;;;3.30;99.90;;;;;;5045736;28;20473;-73
2022/12/03 02:22:55;;;;;;;23.08;8.35;;;3.20;99.90;;;;;;5044428;28;20052;-73
2022/12/03 02:25:30;;;;;;;22.05;7.93;;;3.20;99.90;;;;;;5029009;28;20045;-73
2022/12/03 02:27:57;;;;;;;22.35;8.40;;;3.20;99.90;;;;;;5074566;28;20029;-73
2022/12/03 02:30:26;;;;;;;22.98;8.70;;;3.20;99.90;;;;;;5072269;28;20401;-73
2022/12/03 02:32:53;;;;;;;25.02;9.77;;;3.30;99.90;;;;;;5044159;28;20090;-74
2022/12/03 02:35:29;;;;;;;21.67;8.25;;;3.30;99.90;;;;;;5037005;28;20034;-74
2022/12/03 02:38:02;;;;;;;22.85;8.63;;;3.30;99.90;;;;;;5039890;28;20037;-73
2022/12/03 02:40:31;;;;;;;22.65;7.95;;;3.40;99.90;;;;;;5043430;28;20045;-73
2022/12/03 02:43:00;;;;;;;22.70;8.65;;;3.30;99.90;;;;;;5045289;28;20047;-73
2022/12/03 02:45:29;;;;;;;24.80;8.63;;;3.30;99.90;;;;;;5049541;28;20060;-74
2022/12/03 02:48:26;;;;;;;22.80;7.95;;;3.30;99.90;;;;;;5046278;28;20025;-72
2022/12/03 02:50:55;;;;;;;23.75;8.38;;;3.30;99.90;;;;;;5026106;28;20036;-73
2022/12/03 02:53:43;;;;;;;27.35;8.48;;;3.30;99.90;;;;;;5039040;28;20034;-73
2022/12/03 02:56:12;;;;;;;23.02;8.85;;;3.30;99.90;;;;;;5042621;28;20041;-73
2022/12/03 02:58:39;;;;;;;21.65;7.93;;;3.40;99.90;;;;;;5043887;28;20075;-73
2022/12/03 03:01:05;;;;;;;19.95;8.60;;;3.30;99.90;;;;;;5042628;28;20041;-73
2022/12/03 03:03:31;;;;;;;19.83;7.40;;;3.30;99.90;;;;;;5041482;28;20111;-72
2022/12/03 03:06:00;;;;;;;26.35;8.93;;;3.30;99.90;;;;;;5040673;28;20060;-73
2022/12/03 03:08:27;;;;;;;22.20;8.88;;;3.30;99.90;;;;;;5043338;28;20059;-73
2022/12/03 03:10:53;;;;;;;23.05;8.48;;;3.40;99.90;;;;;;5040752;28;20045;-73
2022/12/03 03:13:19;;;;;;;21.30;7.93;;;3.30;99.90;;;;;;5049887;28;20052;-73
2022/12/03 03:15:45;;;;;;;24.77;9.30;;;3.40;99.90;;;;;;5047002;28;20029;-73
2022/12/03 03:18:12;;;;;;;20.67;7.90;;;3.40;99.90;;;;;;5045806;28;20043;-74
2022/12/03 03:20:38;;;;;;;20.35;7.13;;;3.40;99.90;;;;;;5042941;28;20106;-73
2022/12/03 03:23:10;;;;;;;22.02;8.63;;;3.40;99.90;;;;;;5041840;28;20072;-73
2022/12/03 03:25:40;;;;;;;23.55;9.02;;;3.40;99.90;;;;;;5042018;28;20041;-73
2022/12/03 03:28:06;;;;;;;23.85;8.75;;;3.40;99.90;;;;;;5040982;28;20036;-73
2022/12/03 03:30:34;;;;;;;21.67;8.05;;;3.40;99.90;;;;;;5041272;28;20041;-72
2022/12/03 03:33:00;;;;;;;24.50;9.07;;;3.40;99.90;;;;;;5040073;28;20041;-73
2022/12/03 03:35:26;;;;;;;20.85;8.07;;;3.30;99.90;;;;;;5040293;28;20529;-73
2022/12/03 03:37:52;;;;;;;23.30;9.10;;;3.40;99.90;;;;;;5042644;28;20485;-73
2022/12/03 03:40:19;;;;;;;23.02;9.02;;;3.40;99.90;;;;;;5039596;28;20029;-74
2022/12/03 03:42:45;;;;;;;23.42;9.25;;;3.50;99.90;;;;;;5042009;28;20033;-74
2022/12/03 03:45:11;;;;;;;22.33;8.25;;;3.40;99.90;;;;;;5041291;28;20052;-74
2022/12/03 03:47:37;;;;;;;23.00;8.98;;;3.40;99.90;;;;;;5040609;28;20037;-73
2022/12/03 03:50:04;;;;;;;20.45;8.50;;;3.40;99.90;;;;;;5039563;28;20740;-73
2022/12/03 03:52:29;;;;;;;22.80;8.15;;;3.50;99.90;;;;;;5040703;28;20029;-74
2022/12/03 03:54:55;;;;;;;20.98;7.75;;;3.50;99.90;;;;;;5040274;28;20383;-73
2022/12/03 03:57:21;;;;;;;22.17;9.10;;;3.40;99.90;;;;;;5042120;28;20512;-73
2022/12/03 03:59:46;;;;;;;23.23;8.77;;;3.50;99.90;;;;;;5041358;28;20034;-73
2022/12/03 04:02:21;;;;;;;23.92;9.55;;;3.40;99.90;;;;;;5041719;28;20059;-73
2022/12/03 04:04:47;;;;;;;22.55;9.52;;;3.50;99.90;;;;;;5035822;28;20029;-73
2022/12/03 04:07:14;;;;;;;20.42;7.65;;;3.40;99.90;;;;;;5043221;28;20386;-72
2022/12/03 04:09:40;;;;;;;24.83;8.82;;;3.40;99.90;;;;;;5040154;28;20132;-73
2022/12/03 04:14:50;;;;;;;21.00;7.75;;;3.50;99.90;;;;;;5040229;28;20516;-74
2022/12/03 04:17:15;;;;;;;19.67;7.78;;;3.50;99.90;;;;;;5040867;28;20029;-73
2022/12/03 04:19:41;;;;;;;25.27;8.57;;;3.50;99.90;;;;;;5039137;28;20029;-74
2022/12/03 04:28:47;;;;;;;26.73;8.75;;;3.50;99.90;;;;;;5040985;28;20072;-74
2022/12/03 04:30:20;;;;;;;22.17;8.35;;;3.50;99.90;;;;;;5043333;28;20091;-73
2022/12/03 04:35:42;;;;;;;25.63;9.88;;;3.50;99.90;;;;;;5056696;28;20056;-73
2022/12/03 04:38:13;;;;;;;25.83;8.57;;;3.60;99.90;;;;;;5049687;28;20406;-74
2022/12/03 04:43:24;;;;;;;22.60;10.30;;;3.60;99.90;;;;;;5040857;28;20111;-73
2022/12/03 04:45:49;;;;;;;22.35;8.32;;;3.60;99.90;;;;;;5041038;28;20065;-73
2022/12/03 04:48:15;;;;;;;24.88;9.40;;;3.60;99.90;;;;;;5039915;28;20034;-72
2022/12/03 04:50:41;;;;;;;22.00;8.55;;;3.60;99.90;;;;;;5045476;28;20544;-73
2022/12/03 04:53:07;;;;;;;22.75;9.32;;;3.50;99.90;;;;;;5038421;28;20041;-73
2022/12/03 04:55:33;;;;;;;21.13;8.57;;;3.60;99.90;;;;;;5040862;28;20398;-74
2022/12/03 04:57:58;;;;;;;22.65;9.13;;;3.60;99.90;;;;;;5039293;28;20037;-73
2022/12/03 05:00:24;;;;;;;22.90;7.78;;;3.60;99.90;;;;;;5037744;28;20035;-73
2022/12/03 05:02:50;;;;;;;18.30;7.43;;;3.60;99.90;;;;;;5036449;28;20033;-73
2022/12/03 05:05:15;;;;;;;25.08;8.90;;;3.60;99.90;;;;;;5041471;28;20033;-73
2022/12/03 05:07:41;;;;;;;24.42;9.18;;;3.60;99.90;;;;;;5045021;28;20128;-73
2022/12/03 05:10:08;;;;;;;24.40;9.30;;;3.60;99.90;;;;;;5043143;28;20400;-73
2022/12/03 05:12:33;;;;;;;26.33;8.98;;;3.60;99.90;;;;;;5040944;28;20052;-74
2022/12/03 05:14:59;;;;;;;21.92;9.10;;;3.60;99.90;;;;;;5039038;28;20032;-73
2022/12/03 05:17:25;;;;;;;23.70;8.57;;;3.60;99.90;;;;;;5040513;28;20112;-72
2022/12/03 05:22:35;;;;;;;26.13;8.82;;;3.60;99.90;;;;;;5040441;28;20064;-73
2022/12/03 05:25:00;;;;;;;23.85;8.55;;;3.60;99.90;;;;;;5038751;28;20080;-73
2022/12/03 05:27:26;;;;;;;27.67;10.10;;;3.60;99.90;;;;;;5039189;28;20034;-73
2022/12/03 05:29:52;;;;;;;25.63;10.32;;;3.60;99.90;;;;;;5038153;28;20382;-73
2022/12/03 05:32:18;;;;;;;17.98;7.55;;;3.60;99.90;;;;;;5036810;28;20041;-73
2022/12/03 05:34:43;;;;;;;22.85;8.70;;;3.60;99.90;;;;;;5041056;28;20036;-73
2022/12/03 05:37:09;;;;;;;19.88;9.00;;;3.60;99.90;;;;;;5038103;28;20041;-73
2022/12/03 05:39:35;;;;;;;19.33;7.93;;;3.60;99.90;;;;;;5044753;28;20033;-74
2022/12/03 05:44:45;;;;;;;25.95;8.75;;;3.60;99.90;;;;;;5034562;28;20043;-73
2022/12/03 05:47:10;;;;;;;23.67;8.77;;;3.60;99.90;;;;;;5040841;28;20064;-73
2022/12/03 05:49:36;;;;;;;22.00;9.05;;;3.60;99.90;;;;;;5037878;28;20037;-73
2022/12/03 05:52:01;;;;;;;17.88;7.40;;;3.60;99.90;;;;;;5040163;28;20099;-73
2022/12/03 05:54:27;;;;;;;24.80;9.43;;;3.60;99.90;;;;;;5037699;28;20477;-73
2022/12/03 05:56:52;;;;;;;21.92;8.30;;;3.50;99.90;;;;;;5041758;28;20025;-74
2022/12/03 05:59:18;;;;;;;19.42;7.13;;;3.60;99.90;;;;;;5036721;28;20065;-74
2022/12/03 06:01:43;;;;;;;20.67;7.65;;;3.60;99.90;;;;;;5039190;28;20033;-74
2022/12/03 06:04:09;;;;;;;22.08;7.57;;;3.60;99.90;;;;;;5039832;28;20040;-72
2022/12/03 06:06:35;;;;;;;27.52;9.35;;;3.60;99.90;;;;;;5048815;28;20033;-73
2022/12/03 06:09:00;;;;;;;20.63;8.25;;;3.70;99.90;;;;;;5045130;28;20037;-73
2022/12/03 06:11:28;;;;;;;26.98;9.63;;;3.60;99.90;;;;;;5043306;28;20528;-73
2022/12/03 06:13:54;;;;;;;26.63;9.55;;;3.70;99.90;;;;;;5039292;28;20045;-73
2022/12/03 06:16:19;;;;;;;21.52;8.93;;;3.60;99.90;;;;;;5038337;28;20443;-73
2022/12/03 06:18:45;;;;;;;24.92;9.52;;;3.60;99.90;;;;;;5037987;28;20053;-74
2022/12/03 06:21:10;;;;;;;26.48;10.20;;;3.60;99.90;;;;;;5040959;28;20500;-74
2022/12/03 06:23:43;;;;;;;26.42;10.35;;;3.60;99.90;;;;;;5038085;28;20034;-73
2022/12/03 06:26:09;;;;;;;26.05;10.57;;;3.60;99.90;;;;;;5035761;28;20048;-73
2022/12/03 06:28:35;;;;;;;31.75;10.93;;;3.60;99.90;;;;;;5036319;28;20434;-73
2022/12/03 06:31:00;;;;;;;29.50;11.38;;;3.50;99.90;;;;;;5038526;28;20060;-73
2022/12/03 06:33:26;;;;;;;32.83;12.20;;;3.60;99.90;;;;;;5039614;28;20151;-73
2022/12/03 06:35:51;;;;;;;38.55;12.27;;;3.60;99.90;;;;;;5037159;28;20037;-73
2022/12/03 06:38:17;;;;;;;29.80;10.27;;;3.50;99.90;;;;;;5039813;28;20506;-73
2022/12/03 06:40:42;;;;;;;30.95;11.45;;;3.50;99.90;;;;;;5042993;28;20056;-73
2022/12/03 06:43:08;;;;;;;35.08;11.15;;;3.50;99.90;;;;;;5040467;28;20033;-73
2022/12/03 06:45:34;;;;;;;30.95;10.70;;;3.50;99.90;;;;;;5038875;28;20561;-73
2022/12/03 06:47:59;;;;;;;35.33;12.75;;;3.40;99.90;;;;;;5043017;28;20405;-73
2022/12/03 06:50:25;;;;;;;31.35;12.45;;;3.50;99.90;;;;;;5039362;28;20132;-73
2022/12/03 06:52:50;;;;;;;32.05;11.38;;;3.50;99.90;;;;;;5040053;28;20036;-73
2022/12/03 06:55:16;;;;;;;27.33;11.60;;;3.50;99.90;;;;;;5039070;28;20045;-73
2022/12/03 06:57:41;;;;;;;27.98;10.48;;;3.50;99.90;;;;;;5041507;28;20033;-73
2022/12/03 07:00:07;;;;;;;29.17;10.68;;;3.40;99.90;;;;;;5046809;28;20037;-73
2022/12/03 07:02:33;;;;;;;25.20;10.50;;;3.40;99.90;;;;;;5041739;28;20034;-73
2022/12/03 07:04:59;;;;;;;30.58;11.35;;;3.40;99.90;;;;;;5043968;28;20379;-73
2022/12/03 07:07:25;;;;;;;25.35;10.13;;;3.40;99.90;;;;;;5041911;28;20049;-72
2022/12/03 07:09:50;;;;;;;22.42;9.07;;;3.40;99.90;;;;;;5036555;28;20030;-73
2022/12/03 07:12:16;;;;;;;24.38;9.15;;;3.40;99.90;;;;;;5039555;28;20398;-73
2022/12/03 07:14:41;;;;;;;26.38;9.73;;;3.50;99.90;;;;;;5038632;28;20036;-72
2022/12/03 07:17:07;;;;;;;30.45;10.20;;;3.40;99.90;;;;;;5041628;28;20033;-73
2022/12/03 07:19:32;;;;;;;31.08;11.27;;;3.40;99.90;;;;;;5043317;28;20397;-73
2022/12/03 07:21:58;;;;;;;27.42;10.45;;;3.50;99.90;;;;;;5036667;28;20075;-73
2022/12/03 07:24:24;;;;;;;24.80;10.38;;;3.50;99.90;;;;;;5037454;28;20037;-73
2022/12/03 07:26:49;;;;;;;31.38;11.25;;;3.50;99.90;;;;;;5040459;28;20042;-73
2022/12/03 07:29:15;;;;;;;23.83;8.60;;;3.50;99.90;;;;;;5039934;28;20043;-73
2022/12/03 07:31:40;;;;;;;27.80;10.30;;;3.50;99.90;;;;;;5041019;28;20038;-73
2022/12/03 07:34:06;;;;;;;28.33;10.75;;;3.50;99.90;;;;;;5031267;28;20507;-73
2022/12/03 07:36:32;;;;;;;24.70;10.13;;;3.40;99.90;;;;;;5046433;28;20031;-73
2022/12/03 07:38:57;;;;;;;30.67;10.13;;;3.40;99.90;;;;;;5040709;28;20117;-73
2022/12/03 07:41:23;;;;;;;28.73;10.13;;;3.40;99.90;;;;;;5040021;28;20533;-73
2022/12/03 07:43:49;;;;;;;29.73;10.85;;;3.40;99.90;;;;;;5039113;28;20058;-74
2022/12/03 07:46:14;;;;;;;22.10;8.45;;;3.40;99.90;;;;;;5032581;28;20044;-73
2022/12/03 07:48:40;;;;;;;23.92;9.65;;;3.40;99.90;;;;;;5045576;28;20457;-73
2022/12/03 07:51:06;;;;;;;24.55;9.70;;;3.50;99.90;;;;;;5038337;28;20059;-73
2022/12/03 07:53:31;;;;;;;22.83;9.40;;;3.40;99.90;;;;;;5068968;28;20520;-73
2022/12/03 07:55:57;;;;;;;23.67;9.13;;;3.40;99.90;;;;;;5040639;28;20029;-73
2022/12/03 07:58:23;;;;;;;26.10;9.73;;;3.40;99.90;;;;;;5040369;28;20029;-74
2022/12/03 08:00:48;;;;;;;26.10;10.07;;;3.40;99.90;;;;;;5037561;28;20060;-74
2022/12/03 08:03:14;;;;;;;23.27;9.45;;;3.40;99.90;;;;;;5039104;28;20072;-72
2022/12/03 08:05:39;;;;;;;27.60;10.10;;;3.40;99.90;;;;;;5040418;28;20025;-72
2022/12/03 08:08:05;;;;;;;25.88;9.60;;;3.40;99.90;;;;;;5039181;28;20084;-72
2022/12/03 08:10:31;;;;;;;23.58;8.77;;;3.40;99.90;;;;;;5043582;28;20244;-72
2022/12/03 08:12:58;;;;;;;22.75;9.10;;;3.40;99.90;;;;;;5044971;28;20043;-72
2022/12/03 08:15:27;;;;;;;24.10;8.45;;;3.30;99.90;;;;;;5039813;28;20390;-72
2022/12/03 08:17:58;;;;;;;25.30;9.90;;;3.40;99.90;;;;;;5032901;28;20034;-73
2022/12/03 08:20:30;;;;;;;22.52;9.23;;;3.50;99.90;;;;;;5036495;28;20090;-73
2022/12/03 08:22:56;;;;;;;21.77;9.10;;;3.40;99.90;;;;;;5039417;28;20036;-73
2022/12/03 08:25:24;;;;;;;23.65;9.00;;;3.40;99.90;;;;;;5036977;28;20036;-73
2022/12/03 08:27:52;;;;;;;22.23;8.80;;;3.40;99.90;;;;;;5034496;28;20045;-74
2022/12/03 08:30:18;;;;;;;24.02;9.20;;;3.40;99.90;;;;;;5041023;28;20044;-73
2022/12/03 08:32:44;;;;;;;27.40;9.20;;;3.40;99.90;;;;;;5038712;28;20072;-73
2022/12/03 08:35:12;;;;;;;21.60;8.98;;;3.40;99.90;;;;;;5034051;28;20472;-74
2022/12/03 08:37:38;;;;;;;24.80;8.88;;;3.30;99.90;;;;;;5040148;28;20037;-73
2022/12/03 08:40:31;;;;;;;23.80;9.10;;;3.30;99.90;;;;;;5039880;28;20056;-74
2022/12/03 08:42:57;;;;;;;26.70;9.43;;;3.30;99.90;;;;;;5046804;28;20093;-73
2022/12/03 08:45:38;;;;;;;23.95;9.27;;;3.40;99.90;;;;;;5043943;28;20041;-73
2022/12/03 08:48:25;;;;;;;30.27;9.75;;;3.40;99.90;;;;;;5072626;28;20052;-73
2022/12/03 08:50:53;;;;;;;25.10;9.68;;;3.30;99.90;;;;;;5036608;28;20052;-74
2022/12/03 08:53:34;;;;;;;27.35;10.20;;;3.30;99.90;;;;;;5036666;28;20414;-73
2022/12/03 08:56:04;;;;;;;;;;;3.30;99.90;;;;;;5069157;28;20033;-74
2022/12/03 08:58:45;;;;;;;26.05;9.70;;;3.30;99.90;;;;;;5039378;28;19921;-72
2022/12/03 09:01:10;;;;;;;;;;;3.20;99.90;;;;;;5041424;28;20065;-73
2022/12/03 09:03:38;;;;;;;26.17;10.05;;;3.20;99.90;;;;;;5040767;28;20305;-71
2022/12/03 09:06:04;;;;;;;27.90;10.65;;;3.20;99.90;;;;;;5035674;28;20045;-72
2022/12/03 09:08:29;;;;;;;24.73;9.40;;;3.20;99.90;;;;;;5041077;28;20048;-72
2022/12/03 09:10:55;;;;;;;25.95;10.82;;;3.20;99.90;;;;;;5033158;28;20056;-73
2022/12/03 09:13:21;;;;;;;31.15;11.15;;;3.20;99.90;;;;;;5037591;28;20025;-73
2022/12/03 09:15:46;;;;;;;30.27;10.80;;;3.20;99.90;;;;;;5038613;28;20037;-73
2022/12/03 09:18:15;;;;;;;28.02;10.98;;;3.20;99.90;;;;;;5039669;28;20030;-73
2022/12/03 09:20:40;;;;;;;30.88;11.25;;;3.20;99.90;;;;;;5041141;28;20025;-73
2022/12/03 09:23:06;;;;;;;23.98;10.63;;;3.20;99.90;;;;;;5041244;28;20484;-73
2022/12/03 09:25:32;;;;;;;30.15;10.93;;;3.20;99.90;;;;;;5038216;28;20098;-72
2022/12/03 09:27:57;;;;;;;32.60;12.45;;;3.20;99.90;;;;;;5041049;28;20069;-72
2022/12/03 09:30:23;;;;;;;28.00;10.10;;;3.20;99.90;;;;;;5044027;28;20056;-73
2022/12/03 09:32:48;;;;;;;31.20;12.48;;;3.20;99.90;;;;;;5039576;28;20033;-67
2022/12/03 09:35:14;;;;;;;43.15;12.13;;;3.10;99.90;;;;;;5044153;28;20363;-70
2022/12/03 09:37:40;;;;;;;31.88;11.23;;;3.10;99.90;;;;;;5043732;28;20068;-71
2022/12/03 09:40:07;;;;;;;32.55;12.05;;;3.20;99.90;;;;;;5047567;28;20051;-71
2022/12/03 09:42:32;;;;;;;35.33;12.23;;;3.10;99.90;;;;;;5047074;28;20092;-73
2022/12/03 09:44:59;;;;;;;29.88;10.07;;;3.10;99.90;;;;;;5045030;28;20061;-72
2022/12/03 09:47:24;;;;;;;29.45;11.88;;;3.10;99.90;;;;;;5043741;28;20040;-72
2022/12/03 09:49:50;;;;;;;31.77;11.70;;;3.10;99.90;;;;;;5039898;28;20037;-71
2022/12/03 09:52:24;;;;;;;32.13;12.20;;;3.10;99.90;;;;;;5043520;28;20056;-71
2022/12/03 09:54:49;;;;;;;33.30;11.65;;;3.10;99.90;;;;;;5047646;28;20037;-71
2022/12/03 09:57:17;;;;;;;26.88;11.18;;;3.10;99.90;;;;;;5049027;28;20028;-71
2022/12/03 09:59:42;;;;;;;29.95;11.10;;;3.10;99.90;;;;;;5043672;28;20040;-70
2022/12/03 10:02:25;;;;;;;30.88;10.30;;;3.10;99.90;;;;;;5040150;28;20384;-70
2022/12/03 10:04:52;;;;;;;37.63;12.23;;;3.10;99.90;;;;;;5043272;28;20378;-71
2022/12/03 10:07:18;;;;;;;31.50;11.43;;;3.20;99.90;;;;;;5039009;28;20072;-72
2022/12/03 10:09:43;;;;;;;33.90;11.45;;;3.20;99.90;;;;;;5041272;28;20116;-69
2022/12/03 10:12:21;;;;;;;31.02;11.57;;;3.10;99.90;;;;;;5041807;28;20045;-71
2022/12/03 10:14:47;;;;;;;28.73;11.48;;;3.10;99.90;;;;;;5043458;28;20041;-73
2022/12/03 10:17:13;;;;;;;33.45;11.88;;;3.20;99.90;;;;;;5043549;28;20543;-72
2022/12/03 10:19:41;;;;;;;28.55;11.43;;;3.20;99.90;;;;;;5044716;28;20087;-71
2022/12/03 10:22:07;;;;;;;28.55;10.93;;;3.20;99.90;;;;;;5041853;28;20060;-72
2022/12/03 10:24:35;;;;;;;33.92;12.77;;;3.20;99.90;;;;;;5043416;28;20086;-72
2022/12/03 10:27:22;;;;;;;30.73;11.77;;;3.20;99.90;;;;;;5041583;28;20585;-70
2022/12/03 10:29:58;;;;;;;25.30;9.88;;;3.20;99.90;;;;;;5031583;28;20045;-70
2022/12/03 10:32:38;;;;;;;27.15;10.48;;;3.10;99.90;;;;;;5071339;28;20021;-71
2022/12/03 10:35:12;;;;;;;38.33;11.18;;;3.20;99.90;;;;;;5078564;28;20033;-71
2022/12/03 10:37:58;;;;;;;29.95;10.70;;;3.10;99.90;;;;;;5044912;28;20035;-72
2022/12/03 10:40:26;;;;;;;26.80;9.75;;;3.20;99.90;;;;;;5042384;28;20040;-72
2022/12/03 10:43:10;;;;;;;28.85;8.40;;;3.10;99.90;;;;;;5033570;28;20033;-71
2022/12/03 10:45:36;;;;;;;31.75;9.25;;;3.10;99.90;;;;;;5056154;28;20024;-69
2022/12/03 10:48:11;;;;;;;31.70;10.32;;;3.10;99.90;;;;;;5043502;28;20116;-71
2022/12/03 10:50:44;;;;;;;31.08;10.95;;;3.10;99.90;;;;;;5043713;28;20439;-70
2022/12/03 10:53:10;;;;;;;25.00;10.45;;;3.10;99.90;;;;;;5047097;28;20562;-71
2022/12/03 10:55:42;;;;;;;30.50;9.38;;;3.00;99.90;;;;;;5044565;28;20106;-71
2022/12/03 10:58:21;;;;;;;27.10;10.10;;;3.00;99.90;;;;;;5042652;28;20168;-70
2022/12/03 11:00:49;;;;;;;28.95;8.93;;;3.00;99.90;;;;;;5048146;28;20033;-71
2022/12/03 11:03:26;;;;;;;31.70;9.50;;;3.00;99.90;;;;;;5046397;28;20032;-71
2022/12/03 11:05:54;;;;;;;35.33;10.98;;;3.00;99.90;;;;;;5037793;28;20060;-72
2022/12/03 11:08:25;;;;;;;34.53;9.88;;;2.90;99.90;;;;;;5047936;28;20027;-71
2022/12/03 11:10:57;;;;;;;36.30;11.43;;;2.90;99.90;;;;;;5038328;28;20041;-71
2022/12/03 11:13:27;;;;;;;38.78;12.80;;;2.90;99.90;;;;;;5038654;28;20033;-71
2022/12/03 11:15:53;;;;;;;31.93;10.07;;;2.90;99.90;;;;;;5045774;28;20048;-70
2022/12/03 11:18:37;;;;;;;32.00;11.35;;;2.90;99.90;;;;;;5043275;28;20034;-71
2022/12/03 11:21:08;;;;;;;31.08;10.55;;;2.80;99.90;;;;;;5042188;28;20033;-71
2022/12/03 11:23:43;;;;;;;30.85;11.55;;;2.90;99.90;;;;;;5042410;28;20387;-71
2022/12/03 11:26:09;;;;;;;41.28;11.73;;;2.80;99.90;;;;;;5039908;28;20034;-70
2022/12/03 11:28:37;;;;;;;31.95;9.60;;;2.70;99.90;;;;;;5075141;28;20049;-70
2022/12/03 11:31:10;;;;;;;33.60;10.63;;;2.80;99.90;;;;;;5042874;28;20075;-71
2022/12/03 11:33:39;;;;;;;43.42;13.25;;;2.80;99.90;;;;;;5042368;28;20056;-70
2022/12/03 11:36:04;;;;;;;41.40;12.05;;;2.70;99.90;;;;;;5042967;28;20037;-71
2022/12/03 11:38:36;;;;;;;49.08;13.27;;;2.70;99.90;;;;;;5049027;28;20093;-71
2022/12/03 11:41:13;;;;;;;40.63;12.57;;;2.70;99.90;;;;;;5046565;28;20049;-72
2022/12/03 11:43:51;;;;;;;46.70;12.25;;;2.70;99.90;;;;;;5048569;28;20037;-71
2022/12/03 11:46:18;;;;;;;44.42;12.18;;;2.70;99.90;;;;;;5037492;28;20033;-72
2022/12/03 11:48:48;;;;;;;30.15;10.13;;;2.70;99.90;;;;;;5043458;28;20052;-72
2022/12/03 11:51:15;;;;;;;37.13;10.35;;;2.60;99.90;;;;;;5043838;28;20037;-72
2022/12/03 11:53:42;;;;;;;36.15;10.70;;;2.60;99.90;;;;;;5043475;28;20045;-72
2022/12/03 11:56:14;;;;;;;34.80;11.68;;;2.70;99.90;;;;;;5043126;28;20034;-72
2022/12/03 11:58:42;;;;;;;32.83;10.40;;;2.70;99.90;;;;;;5035800;28;20043;-71
2022/12/03 12:01:08;;;;;;;31.05;9.95;;;2.70;99.90;;;;;;5043131;28;20067;-71
2022/12/03 12:03:40;;;;;;;42.42;12.45;;;2.70;99.90;;;;;;5035205;28;20496;-73
2022/12/03 12:06:12;;;;;;;31.08;10.05;;;2.70;99.90;;;;;;5039773;28;20037;-72
2022/12/03 12:08:53;;;;;;;35.22;11.20;;;2.80;99.90;;;;;;5038684;28;20064;-73
2022/12/03 12:11:27;;;;;;;30.70;9.77;;;2.80;99.90;;;;;;5032398;28;20056;-71
2022/12/03 12:13:55;;;;;;;32.63;11.70;;;2.80;99.90;;;;;;5039382;28;20510;-71
2022/12/03 12:16:41;;;;;;;35.88;11.77;;;2.80;99.90;;;;;;5037075;28;20034;-71
2022/12/03 12:19:30;;;;;;;36.78;11.25;;;2.80;99.90;;;;;;5036718;28;20045;-71
2022/12/03 12:22:17;;;;;;;27.33;10.55;;;2.90;99.90;;;;;;5068880;28;20033;-73
2022/12/03 12:24:45;;;;;;;29.45;10.13;;;2.80;99.90;;;;;;5035556;28;20037;-72
2022/12/03 12:27:15;;;;;;;26.67;8.95;;;2.80;99.90;;;;;;5038946;28;20040;-73
2022/12/03 12:29:42;;;;;;;27.20;10.05;;;2.70;99.90;;;;;;5040716;28;20118;-73
2022/12/03 12:32:16;;;;;;;27.25;9.27;;;2.70;99.90;;;;;;5069974;28;21625;-73
2022/12/03 12:34:47;;;;;;;22.30;8.35;;;2.70;99.90;;;;;;5040612;28;20021;-71
2022/12/03 12:37:27;;;;;;;21.63;8.60;;;2.80;99.90;;;;;;5038710;28;20482;-72
2022/12/03 12:39:56;;;;;;;27.60;8.63;;;2.70;99.90;;;;;;5037122;28;20481;-71
2022/12/03 12:42:36;;;;;;;26.15;7.20;;;2.70;99.90;;;;;;5044665;28;20041;-71
2022/12/03 12:45:14;;;;;;;21.15;6.95;;;2.70;99.90;;;;;;5048791;22;20049;-71
2022/12/03 12:48:05;;;;;;;18.98;6.65;;;2.70;99.90;;;;;;5035726;28;20112;-72
2022/12/03 12:50:32;;;;;;;22.35;7.75;;;2.60;99.90;;;;;;5035656;28;20041;-71
2022/12/03 12:53:05;;;;;;;21.73;7.15;;;2.70;99.90;;;;;;5034300;28;20445;-72
2022/12/03 12:55:30;;;;;;;22.50;7.63;;;2.70;99.90;;;;;;5036490;28;20042;-72
2022/12/03 12:58:01;;;;;;;18.58;7.13;;;2.70;99.90;;;;;;5049778;28;20398;-71
2022/12/03 13:00:26;;;;;;;21.35;7.45;;;2.70;99.90;;;;;;5048442;28;20037;-74
2022/12/03 13:03:02;;;;;;;21.58;7.25;;;2.70;99.90;;;;;;5037152;28;20059;-72
2022/12/03 13:05:39;;;;;;;22.85;7.63;;;2.70;99.90;;;;;;5036592;28;20398;-72
2022/12/03 13:08:14;;;;;;;19.58;7.10;;;2.70;99.90;;;;;;5035901;28;20037;-72